sensor_id;sensor_type;location;lat;lon;timestamp;pressure;altitude;pressure_sealevel;temperature;humidity
65276;BME280;51875;49.994;14.052;2023-06-14T00:01:01;98148.75;;;11.35;100.00
65276;BME280;51875;49.994;14.052;2023-06-14T00:02:32;98151.97;;;11.18;100.00
65276;BME280;51875;49.994;14.052;2023-06-14T00:03:48;98153.34;;;11.28;100.00
65276;BME280;51875;49.994;14.052;2023-06-14T00:05:04;98154.91;;;11.34;100.00
65276;BME280;51875;49.994;14.052;2023-06-14T00:06:20;98156.81;;;11.29;100.00
65276;BME280;51875;49.994;14.052;2023-06-14T00:07:38;98154.13;;;11.32;100.00
65276;BME280;51875;49.994;14.052;2023-06-14T00:08:57;98154.44;;;11.23;100.00
65276;BME280;51875;49.994;14.052;2023-06-14T00:10:14;98146.34;;;11.04;100.00
65276;BME280;51875;49.994;14.052;2023-06-14T00:11:31;98152.97;;;10.88;100.00
65276;BME280;51875;49.994;14.052;2023-06-14T00:12:46;98151.72;;;10.73;100.00
65276;BME280;51875;49.994;14.052;2023-06-14T00:14:01;98152.78;;;10.68;100.00
65276;BME280;51875;49.994;14.052;2023-06-14T00:15:19;98158.47;;;10.54;100.00
65276;BME280;51875;49.994;14.052;2023-06-14T00:16:34;98148.31;;;10.71;100.00
65276;BME280;51875;49.994;14.052;2023-06-14T00:17:50;98153.22;;;10.81;100.00
65276;BME280;51875;49.994;14.052;2023-06-14T00:19:06;98155.03;;;10.79;100.00
65276;BME280;51875;49.994;14.052;2023-06-14T00:20:21;98152.69;;;10.71;100.00
65276;BME280;51875;49.994;14.052;2023-06-14T00:21:38;98152.91;;;10.65;100.00
65276;BME280;51875;49.994;14.052;2023-06-14T00:22:54;98152.94;;;10.63;100.00
65276;BME280;51875;49.994;14.052;2023-06-14T00:24:12;98153.47;;;10.73;100.00
65276;BME280;51875;49.994;14.052;2023-06-14T00:25:28;98157.97;;;10.69;100.00
65276;BME280;51875;49.994;14.052;2023-06-14T00:26:44;98159.13;;;10.60;100.00
65276;BME280;51875;49.994;14.052;2023-06-14T00:28:00;98156.06;;;10.48;100.00
65276;BME280;51875;49.994;14.052;2023-06-14T00:29:16;98152.38;;;10.53;100.00
65276;BME280;51875;49.994;14.052;2023-06-14T00:30:32;98156.72;;;10.54;100.00
65276;BME280;51875;49.994;14.052;2023-06-14T00:31:47;98159.47;;;10.50;100.00
65276;BME280;51875;49.994;14.052;2023-06-14T00:33:03;98159.47;;;10.50;100.00
65276;BME280;51875;49.994;14.052;2023-06-14T00:34:19;98159.97;;;10.32;100.00
65276;BME280;51875;49.994;14.052;2023-06-14T00:35:35;98163.09;;;10.45;100.00
65276;BME280;51875;49.994;14.052;2023-06-14T00:36:50;98155.47;;;10.38;100.00
65276;BME280;51875;49.994;14.052;2023-06-14T00:38:06;98160.13;;;10.28;100.00
65276;BME280;51875;49.994;14.052;2023-06-14T00:39:21;98154.94;;;10.26;100.00
65276;BME280;51875;49.994;14.052;2023-06-14T00:40:37;98160.31;;;10.22;100.00
65276;BME280;51875;49.994;14.052;2023-06-14T00:41:53;98159.91;;;10.36;100.00
65276;BME280;51875;49.994;14.052;2023-06-14T00:43:08;98156.56;;;10.30;100.00
65276;BME280;51875;49.994;14.052;2023-06-14T00:44:24;98162.34;;;10.42;100.00
65276;BME280;51875;49.994;14.052;2023-06-14T00:45:39;98162.88;;;10.52;100.00
65276;BME280;51875;49.994;14.052;2023-06-14T00:46:55;98163.63;;;10.57;100.00
65276;BME280;51875;49.994;14.052;2023-06-14T00:48:10;98160.63;;;10.39;100.00
65276;BME280;51875;49.994;14.052;2023-06-14T00:49:26;98164.75;;;10.20;100.00
65276;BME280;51875;49.994;14.052;2023-06-14T00:50:42;98162.34;;;10.13;100.00
65276;BME280;51875;49.994;14.052;2023-06-14T00:52:00;98158.22;;;10.04;100.00
65276;BME280;51875;49.994;14.052;2023-06-14T00:53:17;98162.09;;;10.21;100.00
65276;BME280;51875;49.994;14.052;2023-06-14T00:54:33;98165.25;;;10.02;100.00
65276;BME280;51875;49.994;14.052;2023-06-14T00:55:49;98165.81;;;10.12;100.00
65276;BME280;51875;49.994;14.052;2023-06-14T00:57:05;98164.53;;;9.97;100.00
65276;BME280;51875;49.994;14.052;2023-06-14T00:58:22;98165.63;;;9.90;100.00
65276;BME280;51875;49.994;14.052;2023-06-14T00:59:42;98163.88;;;9.91;100.00
65276;BME280;51875;49.994;14.052;2023-06-14T01:00:58;98163.88;;;9.91;100.00
65276;BME280;51875;49.994;14.052;2023-06-14T01:02:14;98166.94;;;10.05;100.00
65276;BME280;51875;49.994;14.052;2023-06-14T01:03:33;98168.59;;;10.08;100.00
65276;BME280;51875;49.994;14.052;2023-06-14T01:04:49;98162.78;;;9.98;100.00
65276;BME280;51875;49.994;14.052;2023-06-14T01:08:05;98164.00;;;9.86;100.00
65276;BME280;51875;49.994;14.052;2023-06-14T01:09:32;98161.72;;;9.75;100.00
65276;BME280;51875;49.994;14.052;2023-06-14T01:11:03;98156.16;;;9.56;100.00
65276;BME280;51875;49.994;14.052;2023-06-14T01:13:55;98154.66;;;9.79;100.00
65276;BME280;51875;49.994;14.052;2023-06-14T01:15:12;98161.84;;;9.70;100.00
65276;BME280;51875;49.994;14.052;2023-06-14T01:16:29;98161.34;;;9.57;100.00
65276;BME280;51875;49.994;14.052;2023-06-14T01:17:49;98162.63;;;9.74;100.00
65276;BME280;51875;49.994;14.052;2023-06-14T01:19:09;98164.72;;;9.91;100.00
65276;BME280;51875;49.994;14.052;2023-06-14T01:20:29;98162.53;;;9.77;100.00
65276;BME280;51875;49.994;14.052;2023-06-14T01:21:45;98164.50;;;9.99;100.00
65276;BME280;51875;49.994;14.052;2023-06-14T01:23:00;98158.00;;;9.82;100.00
65276;BME280;51875;49.994;14.052;2023-06-14T01:24:16;98160.59;;;9.84;100.00
65276;BME280;51875;49.994;14.052;2023-06-14T01:25:35;98156.16;;;9.86;100.00
65276;BME280;51875;49.994;14.052;2023-06-14T01:26:55;98159.69;;;9.85;100.00
65276;BME280;51875;49.994;14.052;2023-06-14T01:28:14;98161.59;;;9.80;100.00
65276;BME280;51875;49.994;14.052;2023-06-14T01:29:32;98153.09;;;9.71;100.00
65276;BME280;51875;49.994;14.052;2023-06-14T01:30:50;98152.09;;;9.75;100.00
65276;BME280;51875;49.994;14.052;2023-06-14T01:32:07;98151.94;;;9.82;100.00
65276;BME280;51875;49.994;14.052;2023-06-14T01:33:26;98157.38;;;9.74;100.00
65276;BME280;51875;49.994;14.052;2023-06-14T01:34:42;98152.16;;;9.74;100.00
65276;BME280;51875;49.994;14.052;2023-06-14T01:35:58;98149.84;;;9.63;100.00
65276;BME280;51875;49.994;14.052;2023-06-14T01:37:15;98150.50;;;9.40;100.00
65276;BME280;51875;49.994;14.052;2023-06-14T01:38:32;98147.19;;;9.33;100.00
65276;BME280;51875;49.994;14.052;2023-06-14T01:39:48;98150.22;;;9.51;100.00
65276;BME280;51875;49.994;14.052;2023-06-14T01:41:07;98159.75;;;9.52;100.00
65276;BME280;51875;49.994;14.052;2023-06-14T01:42:23;98155.94;;;9.32;100.00
65276;BME280;51875;49.994;14.052;2023-06-14T01:43:41;98148.50;;;9.16;100.00
65276;BME280;51875;49.994;14.052;2023-06-14T01:44:57;98151.91;;;9.20;100.00
65276;BME280;51875;49.994;14.052;2023-06-14T01:46:13;98153.81;;;9.13;100.00
65276;BME280;51875;49.994;14.052;2023-06-14T01:47:31;98153.34;;;8.99;100.00
65276;BME280;51875;49.994;14.052;2023-06-14T01:48:47;98150.97;;;8.89;100.00
65276;BME280;51875;49.994;14.052;2023-06-14T01:50:04;98146.44;;;8.96;100.00
65276;BME280;51875;49.994;14.052;2023-06-14T01:51:19;98152.53;;;8.97;100.00
65276;BME280;51875;49.994;14.052;2023-06-14T01:52:36;98146.59;;;8.90;100.00
65276;BME280;51875;49.994;14.052;2023-06-14T01:53:52;98147.63;;;9.17;100.00
65276;BME280;51875;49.994;14.052;2023-06-14T01:55:08;98149.25;;;9.22;100.00
65276;BME280;51875;49.994;14.052;2023-06-14T01:56:24;98150.31;;;9.14;100.00
65276;BME280;51875;49.994;14.052;2023-06-14T01:57:40;98147.81;;;9.10;100.00
65276;BME280;51875;49.994;14.052;2023-06-14T01:58:56;98154.03;;;9.06;100.00
65276;BME280;51875;49.994;14.052;2023-06-14T02:00:14;98151.78;;;8.92;100.00
65276;BME280;51875;49.994;14.052;2023-06-14T02:01:29;98155.13;;;8.97;100.00
65276;BME280;51875;49.994;14.052;2023-06-14T02:02:46;98158.84;;;8.88;100.00
65276;BME280;51875;49.994;14.052;2023-06-14T02:04:01;98154.75;;;8.78;100.00
65276;BME280;51875;49.994;14.052;2023-06-14T02:05:17;98156.16;;;8.91;100.00
65276;BME280;51875;49.994;14.052;2023-06-14T02:06:34;98152.47;;;8.98;100.00
65276;BME280;51875;49.994;14.052;2023-06-14T02:07:50;98158.47;;;9.02;100.00
65276;BME280;51875;49.994;14.052;2023-06-14T02:09:05;98160.25;;;9.01;100.00
65276;BME280;51875;49.994;14.052;2023-06-14T02:10:21;98166.09;;;9.10;100.00
65276;BME280;51875;49.994;14.052;2023-06-14T02:11:37;98152.13;;;9.12;100.00
65276;BME280;51875;49.994;14.052;2023-06-14T02:12:52;98157.47;;;9.06;100.00
65276;BME280;51875;49.994;14.052;2023-06-14T02:14:08;98157.44;;;9.09;100.00
65276;BME280;51875;49.994;14.052;2023-06-14T02:15:26;98156.56;;;9.09;100.00
65276;BME280;51875;49.994;14.052;2023-06-14T02:16:48;98166.22;;;9.05;100.00
65276;BME280;51875;49.994;14.052;2023-06-14T02:18:04;98159.56;;;8.93;100.00
65276;BME280;51875;49.994;14.052;2023-06-14T02:19:20;98160.25;;;9.01;100.00
65276;BME280;51875;49.994;14.052;2023-06-14T02:20:36;98164.56;;;9.02;100.00
65276;BME280;51875;49.994;14.052;2023-06-14T02:21:52;98160.28;;;9.00;100.00
65276;BME280;51875;49.994;14.052;2023-06-14T02:23:08;98165.78;;;8.89;100.00
65276;BME280;51875;49.994;14.052;2023-06-14T02:24:23;98160.59;;;8.87;100.00
65276;BME280;51875;49.994;14.052;2023-06-14T02:25:39;98165.63;;;8.94;100.00
65276;BME280;51875;49.994;14.052;2023-06-14T02:26:55;98165.84;;;8.86;100.00
65276;BME280;51875;49.994;14.052;2023-06-14T02:28:11;98163.28;;;8.84;100.00
65276;BME280;51875;49.994;14.052;2023-06-14T02:29:27;98157.19;;;8.84;100.00
65276;BME280;51875;49.994;14.052;2023-06-14T02:30:42;98168.22;;;8.60;100.00
65276;BME280;51875;49.994;14.052;2023-06-14T02:31:58;98171.41;;;8.72;100.00
65276;BME280;51875;49.994;14.052;2023-06-14T02:33:13;98169.44;;;8.82;100.00
65276;BME280;51875;49.994;14.052;2023-06-14T02:34:29;98178.06;;;8.84;100.00
65276;BME280;51875;49.994;14.052;2023-06-14T02:35:46;98177.16;;;8.86;100.00
65276;BME280;51875;49.994;14.052;2023-06-14T02:37:02;98176.97;;;8.93;100.00
65276;BME280;51875;49.994;14.052;2023-06-14T02:38:18;98177.78;;;8.96;100.00
65276;BME280;51875;49.994;14.052;2023-06-14T02:39:34;98176.06;;;8.95;100.00
65276;BME280;51875;49.994;14.052;2023-06-14T02:40:50;98179.38;;;9.02;100.00
65276;BME280;51875;49.994;14.052;2023-06-14T02:42:06;98174.16;;;9.02;100.00
65276;BME280;51875;49.994;14.052;2023-06-14T02:43:22;98180.28;;;8.99;100.00
65276;BME280;51875;49.994;14.052;2023-06-14T02:44:37;98180.19;;;9.04;100.00
65276;BME280;51875;49.994;14.052;2023-06-14T02:45:53;98177.97;;;8.88;100.00
65276;BME280;51875;49.994;14.052;2023-06-14T02:47:09;98174.22;;;8.64;100.00
65276;BME280;51875;49.994;14.052;2023-06-14T02:48:24;98179.53;;;8.61;100.00
65276;BME280;51875;49.994;14.052;2023-06-14T02:49:40;98182.97;;;8.61;100.00
65276;BME280;51875;49.994;14.052;2023-06-14T02:50:55;98183.06;;;8.57;100.00
65276;BME280;51875;49.994;14.052;2023-06-14T02:52:12;98182.88;;;8.65;100.00
65276;BME280;51875;49.994;14.052;2023-06-14T02:53:28;98181.66;;;8.80;100.00
65276;BME280;51875;49.994;14.052;2023-06-14T02:54:43;98175.03;;;9.01;100.00
65276;BME280;51875;49.994;14.052;2023-06-14T02:55:59;98178.47;;;9.03;100.00
65276;BME280;51875;49.994;14.052;2023-06-14T02:57:15;98178.44;;;9.04;100.00
65276;BME280;51875;49.994;14.052;2023-06-14T02:58:30;98177.69;;;8.99;100.00
65276;BME280;51875;49.994;14.052;2023-06-14T02:59:46;98181.69;;;9.13;100.00
65276;BME280;51875;49.994;14.052;2023-06-14T03:01:02;98184.59;;;9.02;100.00
65276;BME280;51875;49.994;14.052;2023-06-14T03:02:18;98192.31;;;9.07;100.00
65276;BME280;51875;49.994;14.052;2023-06-14T03:03:34;98186.69;;;9.22;100.00
65276;BME280;51875;49.994;14.052;2023-06-14T03:04:50;98187.88;;;9.10;100.00
65276;BME280;51875;49.994;14.052;2023-06-14T03:06:05;98188.63;;;9.14;100.00
65276;BME280;51875;49.994;14.052;2023-06-14T03:07:23;98191.91;;;9.22;100.00
65276;BME280;51875;49.994;14.052;2023-06-14T03:08:41;98184.69;;;8.99;100.00
65276;BME280;51875;49.994;14.052;2023-06-14T03:09:57;98192.19;;;9.11;100.00
65276;BME280;51875;49.994;14.052;2023-06-14T03:11:12;98187.66;;;9.18;100.00
65276;BME280;51875;49.994;14.052;2023-06-14T03:12:28;98195.13;;;8.99;100.00
65276;BME280;51875;49.994;14.052;2023-06-14T03:13:43;98194.94;;;9.05;100.00
65276;BME280;51875;49.994;14.052;2023-06-14T03:15:00;98193.00;;;9.13;100.00
65276;BME280;51875;49.994;14.052;2023-06-14T03:16:19;98194.91;;;9.08;100.00
65276;BME280;51875;49.994;14.052;2023-06-14T03:17:36;98204.97;;;9.22;100.00
65276;BME280;51875;49.994;14.052;2023-06-14T03:18:54;98197.84;;;9.27;100.00
65276;BME280;51875;49.994;14.052;2023-06-14T03:20:12;98193.47;;;9.29;100.00
65276;BME280;51875;49.994;14.052;2023-06-14T03:21:27;98192.41;;;9.35;100.00
65276;BME280;51875;49.994;14.052;2023-06-14T03:22:43;98198.16;;;9.16;100.00
65276;BME280;51875;49.994;14.052;2023-06-14T03:24:01;98202.25;;;9.25;100.00
65276;BME280;51875;49.994;14.052;2023-06-14T03:25:18;98198.03;;;9.21;100.00
65276;BME280;51875;49.994;14.052;2023-06-14T03:26:34;98198.00;;;9.23;100.00
65276;BME280;51875;49.994;14.052;2023-06-14T03:27:49;98204.25;;;9.17;100.00
65276;BME280;51875;49.994;14.052;2023-06-14T03:29:05;98200.63;;;9.21;100.00
65276;BME280;51875;49.994;14.052;2023-06-14T03:30:20;98202.63;;;9.11;100.00
65276;BME280;51875;49.994;14.052;2023-06-14T03:31:41;98198.47;;;9.04;100.00
65276;BME280;51875;49.994;14.052;2023-06-14T03:33:11;98201.06;;;9.04;100.00
65276;BME280;51875;49.994;14.052;2023-06-14T03:34:26;98200.75;;;9.16;100.00
65276;BME280;51875;49.994;14.052;2023-06-14T03:35:43;98208.19;;;8.99;100.00
65276;BME280;51875;49.994;14.052;2023-06-14T03:36:58;98201.97;;;9.03;100.00
65276;BME280;51875;49.994;14.052;2023-06-14T03:38:14;98207.56;;;8.89;100.00
65276;BME280;51875;49.994;14.052;2023-06-14T03:39:30;98209.59;;;8.76;100.00
65276;BME280;51875;49.994;14.052;2023-06-14T03:40:46;98201.34;;;8.93;100.00
65276;BME280;51875;49.994;14.052;2023-06-14T03:42:02;98213.16;;;8.73;100.00
65276;BME280;51875;49.994;14.052;2023-06-14T03:43:18;98213.06;;;8.76;100.00
65276;BME280;51875;49.994;14.052;2023-06-14T03:44:33;98212.81;;;8.87;100.00
65276;BME280;51875;49.994;14.052;2023-06-14T03:45:49;98209.59;;;8.76;100.00
65276;BME280;51875;49.994;14.052;2023-06-14T03:47:05;98214.72;;;8.79;100.00
65276;BME280;51875;49.994;14.052;2023-06-14T03:48:20;98214.44;;;8.92;100.00
65276;BME280;51875;49.994;14.052;2023-06-14T03:49:36;98207.28;;;9.00;100.00
65276;BME280;51875;49.994;14.052;2023-06-14T03:50:52;98212.50;;;9.00;100.00
65276;BME280;51875;49.994;14.052;2023-06-14T03:52:08;98217.84;;;8.94;100.00
65276;BME280;51875;49.994;14.052;2023-06-14T03:53:24;98218.25;;;8.78;100.00
65276;BME280;51875;49.994;14.052;2023-06-14T03:54:40;98219.13;;;8.79;100.00
65276;BME280;51875;49.994;14.052;2023-06-14T03:55:56;98211.50;;;9.04;100.00
65276;BME280;51875;49.994;14.052;2023-06-14T03:57:12;98221.66;;;9.16;100.00
65276;BME280;51875;49.994;14.052;2023-06-14T03:58:28;98221.00;;;9.08;100.00
65276;BME280;51875;49.994;14.052;2023-06-14T03:59:43;98217.84;;;9.28;100.00
65276;BME280;51875;49.994;14.052;2023-06-14T04:00:59;98217.84;;;9.28;100.00
65276;BME280;51875;49.994;14.052;2023-06-14T04:02:16;98219.31;;;9.39;100.00
65276;BME280;51875;49.994;14.052;2023-06-14T04:03:33;98206.16;;;9.43;100.00
65276;BME280;51875;49.994;14.052;2023-06-14T04:04:48;98219.22;;;9.43;100.00
65276;BME280;51875;49.994;14.052;2023-06-14T04:06:04;98211.66;;;9.32;100.00
65276;BME280;51875;49.994;14.052;2023-06-14T04:07:20;98209.47;;;9.49;100.00
65276;BME280;51875;49.994;14.052;2023-06-14T04:08:36;98207.75;;;9.47;100.00
65276;BME280;51875;49.994;14.052;2023-06-14T04:09:55;98213.25;;;9.38;100.00
65276;BME280;51875;49.994;14.052;2023-06-14T04:11:11;98219.22;;;9.43;100.00
65276;BME280;51875;49.994;14.052;2023-06-14T04:12:26;98218.00;;;9.24;100.00
65276;BME280;51875;49.994;14.052;2023-06-14T04:13:44;98213.66;;;9.56;100.00
65276;BME280;51875;49.994;14.052;2023-06-14T04:14:59;98221.25;;;9.65;100.00
65276;BME280;51875;49.994;14.052;2023-06-14T04:16:16;98223.19;;;9.57;100.00
65276;BME280;51875;49.994;14.052;2023-06-14T04:17:32;98224.91;;;9.58;100.00
65276;BME280;51875;49.994;14.052;2023-06-14T04:18:50;98220.72;;;9.52;100.00
65276;BME280;51875;49.994;14.052;2023-06-14T04:20:07;98225.72;;;9.60;100.00
65276;BME280;51875;49.994;14.052;2023-06-14T04:21:25;98228.00;;;9.72;100.00
65276;BME280;51875;49.994;14.052;2023-06-14T04:22:42;98221.47;;;9.57;100.00
65276;BME280;51875;49.994;14.052;2023-06-14T04:23:58;98222.94;;;9.35;100.00
65276;BME280;51875;49.994;14.052;2023-06-14T04:25:17;98226.63;;;9.59;100.00
65276;BME280;51875;49.994;14.052;2023-06-14T04:26:33;98230.03;;;9.63;100.00
65276;BME280;51875;49.994;14.052;2023-06-14T04:27:49;98229.91;;;9.67;100.00
65276;BME280;51875;49.994;14.052;2023-06-14T04:29:05;98229.25;;;9.59;100.00
65276;BME280;51875;49.994;14.052;2023-06-14T04:30:21;98226.97;;;9.78;100.00
65276;BME280;51875;49.994;14.052;2023-06-14T04:31:43;98233.19;;;9.74;100.00
65276;BME280;51875;49.994;14.052;2023-06-14T04:32:59;98222.47;;;9.83;100.00
65276;BME280;51875;49.994;14.052;2023-06-14T04:34:15;98224.56;;;9.70;100.00
65276;BME280;51875;49.994;14.052;2023-06-14T04:35:33;98223.47;;;9.79;100.00
65276;BME280;51875;49.994;14.052;2023-06-14T04:36:51;98228.59;;;9.82;100.00
65276;BME280;51875;49.994;14.052;2023-06-14T04:38:08;98227.19;;;10.02;100.00
65276;BME280;51875;49.994;14.052;2023-06-14T04:39:27;98223.59;;;10.04;100.00
65276;BME280;51875;49.994;14.052;2023-06-14T04:40:43;98223.97;;;9.92;100.00
65276;BME280;51875;49.994;14.052;2023-06-14T04:41:59;98232.69;;;9.91;100.00
65276;BME280;51875;49.994;14.052;2023-06-14T04:43:15;98222.88;;;9.99;100.00
65276;BME280;51875;49.994;14.052;2023-06-14T04:44:32;98222.09;;;9.97;100.00
65276;BME280;51875;49.994;14.052;2023-06-14T04:45:48;98223.44;;;10.11;100.00
65276;BME280;51875;49.994;14.052;2023-06-14T04:47:07;98223.00;;;9.95;100.00
65276;BME280;51875;49.994;14.052;2023-06-14T04:48:22;98224.28;;;10.11;100.00
65276;BME280;51875;49.994;14.052;2023-06-14T04:49:38;98224.59;;;10.00;100.00
65276;BME280;51875;49.994;14.052;2023-06-14T04:50:55;98224.94;;;10.18;100.00
65276;BME280;51875;49.994;14.052;2023-06-14T04:52:11;98224.69;;;10.27;100.00
65276;BME280;51875;49.994;14.052;2023-06-14T04:53:28;98221.06;;;10.31;100.00
65276;BME280;51875;49.994;14.052;2023-06-14T04:54:44;98228.09;;;10.29;100.00
65276;BME280;51875;49.994;14.052;2023-06-14T04:56:00;98225.72;;;10.22;100.00
65276;BME280;51875;49.994;14.052;2023-06-14T04:57:17;98227.59;;;10.48;100.00
65276;BME280;51875;49.994;14.052;2023-06-14T04:58:35;98230.44;;;10.39;100.00
65276;BME280;51875;49.994;14.052;2023-06-14T04:59:51;98227.28;;;10.57;100.00
65276;BME280;51875;49.994;14.052;2023-06-14T05:01:10;98233.75;;;10.74;100.00
65276;BME280;51875;49.994;14.052;2023-06-14T05:02:26;98231.78;;;10.81;100.00
65276;BME280;51875;49.994;14.052;2023-06-14T05:03:42;98231.19;;;10.72;100.00
65276;BME280;51875;49.994;14.052;2023-06-14T05:05:00;98226.28;;;10.88;100.00
65276;BME280;51875;49.994;14.052;2023-06-14T05:06:17;98228.59;;;10.99;100.00
65276;BME280;51875;49.994;14.052;2023-06-14T05:07:32;98230.28;;;11.00;100.00
65276;BME280;51875;49.994;14.052;2023-06-14T05:08:49;98235.28;;;11.08;100.00
65276;BME280;51875;49.994;14.052;2023-06-14T05:10:05;98224.56;;;11.14;100.00
65276;BME280;51875;49.994;14.052;2023-06-14T05:11:21;98228.00;;;11.16;100.00
65276;BME280;51875;49.994;14.052;2023-06-14T05:12:39;98239.09;;;11.25;100.00
65276;BME280;51875;49.994;14.052;2023-06-14T05:13:55;98229.78;;;11.41;100.00
65276;BME280;51875;49.994;14.052;2023-06-14T05:15:10;98239.78;;;11.30;100.00
65276;BME280;51875;49.994;14.052;2023-06-14T05:16:26;98230.31;;;11.51;100.00
65276;BME280;51875;49.994;14.052;2023-06-14T05:17:42;98234.19;;;11.41;100.00
65276;BME280;51875;49.994;14.052;2023-06-14T05:18:58;98235.47;;;11.54;100.00
65276;BME280;51875;49.994;14.052;2023-06-14T05:20:14;98224.63;;;11.64;100.00
65276;BME280;51875;49.994;14.052;2023-06-14T05:21:31;98235.34;;;11.57;100.00
65276;BME280;51875;49.994;14.052;2023-06-14T05:22:48;98234.75;;;11.75;100.00
65276;BME280;51875;49.994;14.052;2023-06-14T05:24:07;98237.09;;;11.82;100.00
65276;BME280;51875;49.994;14.052;2023-06-14T05:25:24;98237.06;;;12.08;100.00
65276;BME280;51875;49.994;14.052;2023-06-14T05:26:40;98238.91;;;12.06;100.00
65276;BME280;51875;49.994;14.052;2023-06-14T05:27:56;98243.66;;;11.94;100.00
65276;BME280;51875;49.994;14.052;2023-06-14T05:29:12;98237.94;;;11.83;100.00
65276;BME280;51875;49.994;14.052;2023-06-14T05:30:29;98241.94;;;11.93;100.00
65276;BME280;51875;49.994;14.052;2023-06-14T05:31:46;98242.03;;;12.15;100.00
65276;BME280;51875;49.994;14.052;2023-06-14T05:33:01;98243.53;;;12.23;100.00
65276;BME280;51875;49.994;14.052;2023-06-14T05:34:17;98237.22;;;12.27;100.00
65276;BME280;51875;49.994;14.052;2023-06-14T05:35:33;98243.56;;;12.21;100.00
65276;BME280;51875;49.994;14.052;2023-06-14T05:36:53;98236.94;;;12.35;100.00
65276;BME280;51875;49.994;14.052;2023-06-14T05:38:10;98242.63;;;12.46;100.00
65276;BME280;51875;49.994;14.052;2023-06-14T05:39:26;98245.63;;;12.59;100.00
65276;BME280;51875;49.994;14.052;2023-06-14T05:40:42;98247.72;;;12.73;100.00
65276;BME280;51875;49.994;14.052;2023-06-14T05:41:57;98248.31;;;12.80;100.00
65276;BME280;51875;49.994;14.052;2023-06-14T05:43:13;98249.25;;;12.79;100.00
65276;BME280;51875;49.994;14.052;2023-06-14T05:44:28;98241.41;;;12.77;100.00
65276;BME280;51875;49.994;14.052;2023-06-14T05:45:44;98250.50;;;12.91;100.00
65276;BME280;51875;49.994;14.052;2023-06-14T05:46:59;98244.81;;;12.79;100.00
65276;BME280;51875;49.994;14.052;2023-06-14T05:48:15;98252.09;;;12.95;100.00
65276;BME280;51875;49.994;14.052;2023-06-14T05:49:30;98254.78;;;12.93;100.00
65276;BME280;51875;49.994;14.052;2023-06-14T05:50:46;98251.59;;;13.07;100.00
65276;BME280;51875;49.994;14.052;2023-06-14T05:52:02;98253.13;;;13.34;100.00
65276;BME280;51875;49.994;14.052;2023-06-14T05:53:17;98256.34;;;13.40;100.00
65276;BME280;51875;49.994;14.052;2023-06-14T05:54:33;98258.03;;;13.21;100.00
65276;BME280;51875;49.994;14.052;2023-06-14T05:55:50;98249.81;;;13.51;100.00
65276;BME280;51875;49.994;14.052;2023-06-14T05:57:08;98254.03;;;13.33;100.00
65276;BME280;51875;49.994;14.052;2023-06-14T05:58:24;98248.22;;;13.47;100.00
65276;BME280;51875;49.994;14.052;2023-06-14T05:59:39;98251.78;;;13.46;100.00
65276;BME280;51875;49.994;14.052;2023-06-14T06:00:55;98252.69;;;13.65;100.00
65276;BME280;51875;49.994;14.052;2023-06-14T06:02:11;98247.66;;;13.80;100.00
65276;BME280;51875;49.994;14.052;2023-06-14T06:03:26;98246.50;;;13.87;100.00
65276;BME280;51875;49.994;14.052;2023-06-14T06:04:44;98256.88;;;13.90;100.00
65276;BME280;51875;49.994;14.052;2023-06-14T06:06:00;98247.78;;;13.97;100.00
65276;BME280;51875;49.994;14.052;2023-06-14T06:07:16;98256.97;;;14.08;100.00
65276;BME280;51875;49.994;14.052;2023-06-14T06:08:32;98251.81;;;14.25;100.00
65276;BME280;51875;49.994;14.052;2023-06-14T06:09:48;98251.34;;;14.35;100.00
65276;BME280;51875;49.994;14.052;2023-06-14T06:11:04;98257.28;;;14.40;100.00
65276;BME280;51875;49.994;14.052;2023-06-14T06:12:19;98252.69;;;14.24;100.00
65276;BME280;51875;49.994;14.052;2023-06-14T06:13:35;98255.47;;;14.40;100.00
65276;BME280;51875;49.994;14.052;2023-06-14T06:14:51;98252.13;;;14.56;100.00
65276;BME280;51875;49.994;14.052;2023-06-14T06:16:06;98252.69;;;14.63;100.00
65276;BME280;51875;49.994;14.052;2023-06-14T06:17:22;98258.59;;;14.68;100.00
65276;BME280;51875;49.994;14.052;2023-06-14T06:18:38;98253.75;;;14.97;100.00
65276;BME280;51875;49.994;14.052;2023-06-14T06:19:54;98257.94;;;15.19;100.00
65276;BME280;51875;49.994;14.052;2023-06-14T06:21:09;98257.31;;;15.14;100.00
65276;BME280;51875;49.994;14.052;2023-06-14T06:22:25;98258.03;;;15.17;100.00
65276;BME280;51875;49.994;14.052;2023-06-14T06:23:40;98263.38;;;15.16;100.00
65276;BME280;51875;49.994;14.052;2023-06-14T06:24:56;98267.59;;;15.37;100.00
65276;BME280;51875;49.994;14.052;2023-06-14T06:26:11;98270.75;;;15.62;100.00
65276;BME280;51875;49.994;14.052;2023-06-14T06:27:27;98272.13;;;15.51;100.00
65276;BME280;51875;49.994;14.052;2023-06-14T06:28:43;98274.34;;;15.77;100.00
65276;BME280;51875;49.994;14.052;2023-06-14T06:29:58;98277.09;;;15.93;100.00
65276;BME280;51875;49.994;14.052;2023-06-14T06:31:14;98269.09;;;15.94;100.00
65276;BME280;51875;49.994;14.052;2023-06-14T06:32:30;98274.81;;;16.03;100.00
65276;BME280;51875;49.994;14.052;2023-06-14T06:33:46;98274.75;;;16.04;100.00
65276;BME280;51875;49.994;14.052;2023-06-14T06:35:01;98277.75;;;16.14;100.00
65276;BME280;51875;49.994;14.052;2023-06-14T06:36:17;98281.50;;;16.26;100.00
65276;BME280;51875;49.994;14.052;2023-06-14T06:37:32;98283.22;;;16.43;100.00
65276;BME280;51875;49.994;14.052;2023-06-14T06:38:48;98276.69;;;16.50;100.00
65276;BME280;51875;49.994;14.052;2023-06-14T06:40:04;98280.69;;;16.58;100.00
65276;BME280;51875;49.994;14.052;2023-06-14T06:41:21;98275.66;;;16.69;100.00